createdAt,value
2022-09-10T00:02:10.440Z,5.67
2022-09-10T00:07:12.915Z,5.33
2022-09-10T00:12:15.340Z,7.67
2022-09-10T00:17:17.811Z,5.07
2022-09-10T00:22:20.494Z,7.40
2022-09-10T00:27:23.346Z,4.37
2022-09-10T00:32:25.802Z,5.07
2022-09-10T00:37:28.199Z,4.53
2022-09-10T00:42:30.644Z,6.07
2022-09-10T00:47:37.391Z,6.13
2022-09-10T00:52:40.200Z,4.33
2022-09-10T00:57:44.796Z,6.07
2022-09-10T01:02:48.239Z,8.67
2022-09-10T01:07:51.061Z,8.67
2022-09-10T01:13:19.823Z,9.53
2022-09-10T01:19:00.440Z,9.43
2022-09-10T01:24:39.866Z,14.43
2022-09-10T01:29:55.875Z,12.27
2022-09-10T01:35:17.101Z,12.70
2022-09-10T01:40:29.664Z,10.17
2022-09-10T01:45:51.660Z,8.37
2022-09-10T01:51:10.580Z,11.07
2022-09-10T01:57:04.015Z,5.83
2022-09-10T02:02:31.058Z,7.67
2022-09-10T02:07:36.440Z,6.97
2022-09-10T02:12:40.157Z,8.37
2022-09-10T02:18:01.910Z,6.73
2022-09-10T02:23:06.383Z,6.13
2022-09-10T02:28:12.079Z,9.03
2022-09-10T02:33:16.520Z,5.03
2022-09-10T02:38:19.284Z,5.33
2022-09-10T02:43:21.828Z,6.87
2022-09-10T02:48:27.986Z,7.83
2022-09-10T02:53:32.651Z,12.80
2022-09-10T02:58:39.452Z,10.97
2022-09-10T03:03:43.111Z,6.17
2022-09-10T03:08:45.838Z,5.40
2022-09-10T03:13:48.357Z,5.17
2022-09-10T03:18:52.068Z,8.27
2022-09-10T03:23:56.876Z,7.07
2022-09-10T03:29:03.302Z,5.40
2022-09-10T03:34:12.920Z,5.60
2022-09-10T03:39:18.435Z,4.33
2022-09-10T03:44:21.012Z,5.83
2022-09-10T03:49:23.965Z,7.33
2022-09-10T03:54:26.449Z,5.40
2022-09-10T03:59:29.915Z,6.77
2022-09-10T04:04:37.448Z,5.93
2022-09-10T04:09:40.347Z,4.60
2022-09-10T04:14:45.457Z,4.70
2022-09-10T04:19:51.128Z,6.07
2022-09-10T04:24:53.726Z,10.03
2022-09-10T04:29:57.366Z,6.53
2022-09-10T04:35:02.935Z,5.63
2022-09-10T04:40:06.276Z,7.20
2022-09-10T04:45:11.953Z,7.47
2022-09-10T04:50:15.590Z,9.80
2022-09-10T04:55:40.229Z,27.63
2022-09-10T05:00:43.463Z,8.80
2022-09-10T05:05:48.033Z,8.43
2022-09-10T05:10:50.830Z,7.73
2022-09-10T05:15:53.447Z,9.33
2022-09-10T05:20:57.160Z,9.37
2022-09-10T05:25:59.939Z,4.27
2022-09-10T05:31:03.405Z,4.90
2022-09-10T05:36:09.380Z,7.50
2022-09-10T05:41:14.037Z,7.17
2022-09-10T05:46:24.380Z,16.97
2022-09-10T05:51:30.813Z,21.57
2022-09-10T05:56:38.148Z,8.83
2022-09-10T06:01:40.647Z,5.47
2022-09-10T06:06:43.170Z,5.87
2022-09-10T06:11:49.375Z,6.00
2022-09-10T06:16:54.816Z,3.57
2022-09-10T06:21:59.070Z,4.73
2022-09-10T06:27:02.915Z,6.93
2022-09-10T06:32:07.581Z,7.07
2022-09-10T06:37:10.276Z,3.37
2022-09-10T06:42:13.799Z,6.53
2022-09-10T06:48:25.365Z,2.87
2022-09-10T06:53:03.683Z,2.83
2022-09-10T06:58:06.738Z,3.27
2022-09-10T07:03:11.706Z,2.40
2022-09-10T07:08:20.502Z,2.00
2022-09-10T07:13:27.546Z,2.33
2022-09-10T07:18:31.276Z,3.53
2022-09-10T07:23:33.888Z,3.00
2022-09-10T07:28:37.684Z,4.00
2022-09-10T07:33:42.263Z,1.93
2022-09-10T07:38:45.328Z,3.33
2022-09-10T07:43:53.844Z,2.87
2022-09-10T07:49:01.457Z,4.97
2022-09-10T07:54:05.312Z,3.33
2022-09-10T07:59:15.220Z,1.83
2022-09-10T08:04:23.588Z,3.67
2022-09-10T08:09:28.079Z,2.13
2022-09-10T08:14:31.754Z,2.90
2022-09-10T08:19:34.362Z,3.37
2022-09-10T08:24:37.813Z,1.90
2022-09-10T08:29:40.446Z,1.87
2022-09-10T08:34:46.454Z,1.60
2022-09-10T08:39:49.718Z,1.30
2022-09-10T08:45:03.616Z,2.97
2022-09-10T08:50:20.253Z,3.00
2022-09-10T08:55:29.545Z,1.07
2022-09-10T09:00:39.183Z,2.17
2022-09-10T09:05:49.872Z,1.33
2022-09-10T09:11:07.193Z,2.00
2022-09-10T09:16:44.352Z,3.70
2022-09-10T09:21:54.624Z,2.20
2022-09-10T09:27:10.291Z,1.57
2022-09-10T09:32:20.535Z,3.03
2022-09-10T09:37:29.351Z,1.10
2022-09-10T09:43:09.552Z,3.37
2022-09-10T09:48:15.777Z,1.77
2022-09-10T09:53:25.520Z,1.63
2022-09-10T09:58:31.101Z,5.00
2022-09-10T10:04:03.055Z,4.20
2022-09-10T10:09:15.409Z,5.10
2022-09-10T10:14:20.814Z,2.90
2022-09-10T10:19:32.418Z,2.77
2022-09-10T10:24:35.198Z,8.03
2022-09-10T10:29:39.341Z,2.70
2022-09-10T10:34:47.954Z,4.55
2022-09-10T10:40:22.595Z,5.37
2022-09-10T10:45:58.748Z,2.63
2022-09-10T10:51:05.087Z,3.47
2022-09-10T10:56:17.304Z,8.63
2022-09-10T11:01:23.302Z,5.40
2022-09-10T11:06:31.954Z,3.57
2022-09-10T11:11:45.171Z,2.00
2022-09-10T11:16:58.628Z,3.30
2022-09-10T11:22:16.342Z,4.33
2022-09-10T11:27:41.778Z,2.07
2022-09-10T11:33:05.792Z,3.28
2022-09-10T11:38:26.419Z,2.20
2022-09-10T11:43:59.912Z,4.78
2022-09-10T11:49:26.835Z,2.00
2022-09-10T11:54:34.388Z,3.08
2022-09-10T12:00:01.140Z,2.95
2022-09-10T12:05:16.116Z,3.35
2022-09-10T12:10:53.408Z,1.55
2022-09-10T12:16:02.563Z,1.60
2022-09-10T12:21:16.474Z,2.10
2022-09-10T12:26:22.518Z,2.47
2022-09-10T12:31:24.999Z,2.08
2022-09-10T12:36:27.472Z,1.33
2022-09-10T12:41:29.942Z,2.22
2022-09-10T12:46:44.759Z,2.63
2022-09-10T12:51:50.516Z,0.98
2022-09-10T12:57:20.405Z,1.75
2022-09-10T13:02:30.999Z,1.42
2022-09-10T13:07:45.581Z,1.45
2022-09-10T13:12:51.241Z,1.20
2022-09-10T13:17:54.586Z,1.13
2022-09-10T13:23:09.110Z,2.05
2022-09-10T13:28:35.519Z,1.23
2022-09-10T13:33:56.044Z,1.60
2022-09-10T13:39:26.865Z,1.83
2022-09-10T13:44:45.294Z,1.60
2022-09-10T13:50:17.334Z,3.00
2022-09-10T13:55:26.600Z,2.67
2022-09-10T14:01:00.921Z,2.97
2022-09-10T14:06:16.966Z,3.13
2022-09-10T14:11:25.111Z,2.67
2022-09-10T14:16:38.756Z,4.78
2022-09-10T14:21:42.281Z,3.05
2022-09-10T14:27:06.856Z,3.08
2022-09-10T14:32:36.256Z,2.45
2022-09-10T14:37:38.799Z,4.28
2022-09-10T14:42:41.311Z,6.35
2022-09-10T14:47:52.357Z,3.83
2022-09-10T14:52:55.728Z,5.38
2022-09-10T14:57:59.433Z,2.40
2022-09-10T15:03:02.617Z,2.33
2022-09-10T15:08:05.166Z,3.20
2022-09-10T15:13:11.144Z,2.08
2022-09-10T15:18:14.608Z,2.55
2022-09-10T15:23:18.318Z,1.90
2022-09-10T15:28:21.082Z,1.30
2022-09-10T15:33:23.468Z,2.80
2022-09-10T15:38:25.953Z,5.13
2022-09-10T15:43:28.348Z,2.10
2022-09-10T15:48:33.571Z,3.27
2022-09-10T15:53:36.277Z,3.23
2022-09-10T15:58:39.636Z,4.17
2022-09-10T16:03:51.701Z,5.57
2022-09-10T16:08:57.528Z,6.90
2022-09-10T16:14:04.671Z,6.83
2022-09-10T16:19:07.466Z,7.33
2022-09-10T16:24:10.439Z,3.77
2022-09-10T16:29:15.622Z,7.43
2022-09-10T16:34:19.771Z,6.72
2022-09-10T16:39:22.238Z,4.18
2022-09-10T16:44:24.725Z,3.80
2022-09-10T16:49:27.432Z,7.73
2022-09-10T16:54:31.973Z,11.03
2022-09-10T16:59:35.536Z,5.90
2022-09-10T17:04:38.038Z,6.83
2022-09-10T17:09:40.454Z,9.33
2022-09-10T17:14:42.861Z,5.97
2022-09-10T17:19:45.327Z,6.43
2022-09-10T17:24:49.361Z,16.23
2022-09-10T17:29:51.734Z,23.97
2022-09-10T17:34:54.577Z,75.47
2022-09-10T17:39:57.046Z,48.83
2022-09-10T17:45:01.109Z,32.53
2022-09-10T17:50:03.838Z,30.80
2022-09-10T17:55:06.614Z,74.23
2022-09-10T18:00:10.464Z,37.00
2022-09-10T18:05:13.198Z,33.30
2022-09-10T18:10:16.263Z,26.20
2022-09-10T18:15:19.686Z,17.00
2022-09-10T18:20:25.765Z,14.17
2022-09-10T18:25:32.343Z,18.30
2022-09-10T18:30:34.724Z,13.57
2022-09-10T18:35:37.171Z,15.00
2022-09-10T18:40:39.573Z,15.77
2022-09-10T18:45:42.470Z,11.73
2022-09-10T18:50:44.895Z,13.07
2022-09-10T18:55:47.456Z,16.90
2022-09-10T19:00:50.358Z,14.97
2022-09-10T19:05:52.803Z,15.53
2022-09-10T19:10:59.155Z,18.80
2022-09-10T19:16:03.164Z,18.57
2022-09-10T19:21:05.922Z,14.53
2022-09-10T19:26:10.345Z,17.20
2022-09-10T19:31:15.665Z,12.13
2022-09-10T19:36:19.165Z,12.50
2022-09-10T19:41:33.964Z,15.53
2022-09-10T19:46:37.108Z,10.10
2022-09-10T19:51:43.797Z,13.87
2022-09-10T19:56:46.387Z,9.90
2022-09-10T20:01:49.123Z,9.97
2022-09-10T20:06:52.314Z,12.73
2022-09-10T20:11:54.704Z,11.13
2022-09-10T20:16:57.094Z,10.93
2022-09-10T20:21:59.508Z,11.93
2022-09-10T20:27:01.868Z,10.97
2022-09-10T20:32:04.458Z,10.70
2022-09-10T20:37:07.019Z,10.83
2022-09-10T20:42:09.952Z,12.47
2022-09-10T20:47:12.583Z,14.67
2022-09-10T20:52:14.968Z,13.93
2022-09-10T20:57:17.392Z,27.90
2022-09-10T21:02:20.322Z,30.27
2022-09-10T21:07:23.511Z,23.03
2022-09-10T21:12:25.955Z,26.10
2022-09-10T21:17:28.370Z,33.63
2022-09-10T21:22:30.986Z,40.03
2022-09-10T21:27:33.831Z,39.27
2022-09-10T21:32:36.285Z,28.33
2022-09-10T21:37:39.397Z,31.63
2022-09-10T21:42:41.815Z,23.37
2022-09-10T21:47:44.176Z,19.93
2022-09-10T21:52:46.569Z,22.27
2022-09-10T21:57:49.005Z,22.83
2022-09-10T22:02:51.979Z,18.93
2022-09-10T22:07:54.655Z,26.23
2022-09-10T22:12:57.320Z,26.13
2022-09-10T22:18:00.007Z,22.40
2022-09-10T22:23:03.583Z,21.17
2022-09-10T22:28:06.469Z,20.53
2022-09-10T22:33:08.937Z,23.87
2022-09-10T22:38:16.844Z,18.63
2022-09-10T22:43:21.948Z,18.53
2022-09-10T22:48:24.650Z,15.57
2022-09-10T22:53:26.984Z,18.20
2022-09-10T22:58:29.350Z,18.53
2022-09-10T23:03:32.330Z,21.40
2022-09-10T23:08:36.382Z,17.40
2022-09-10T23:13:39.432Z,20.27
2022-09-10T23:18:43.185Z,19.13
2022-09-10T23:23:48.181Z,14.87
2022-09-10T23:28:50.791Z,19.57
2022-09-10T23:33:55.915Z,20.73
2022-09-10T23:38:59.185Z,18.40
2022-09-10T23:44:01.794Z,16.40
2022-09-10T23:49:05.064Z,17.10
2022-09-10T23:54:08.849Z,17.40
2022-09-10T23:59:11.633Z,18.37
